createdAt,value
2023-02-16T00:00:24.466Z,15.50
2023-02-16T00:02:52.052Z,16.08
2023-02-16T00:05:35.132Z,16.73
2023-02-16T00:08:03.312Z,15.60
2023-02-16T00:10:34.474Z,15.90
2023-02-16T00:13:21.067Z,15.10
2023-02-16T00:15:48.163Z,16.30
2023-02-16T00:18:19.051Z,16.42
2023-02-16T00:20:47.341Z,15.50
2023-02-16T00:23:14.586Z,17.10
2023-02-16T00:25:41.735Z,16.08
2023-02-16T00:28:16.016Z,16.02
2023-02-16T00:30:43.102Z,15.40
2023-02-16T00:33:21.736Z,15.25
2023-02-16T00:35:49.816Z,14.80
2023-02-16T00:38:16.966Z,15.02
2023-02-16T00:40:44.323Z,14.77
2023-02-16T00:43:29.182Z,13.50
2023-02-16T00:45:57.496Z,13.23
2023-02-16T00:48:25.019Z,14.18
2023-02-16T00:50:52.058Z,13.52
2023-02-16T00:53:19.229Z,13.32
2023-02-16T00:55:46.518Z,13.30
2023-02-16T00:58:26.523Z,14.13
2023-02-16T01:01:03.004Z,14.52
2023-02-16T01:03:30.227Z,15.50
2023-02-16T01:06:16.221Z,16.13
2023-02-16T01:09:02.035Z,14.00
2023-02-16T01:11:29.729Z,13.82
2023-02-16T01:13:57.534Z,14.57
2023-02-16T01:16:37.935Z,15.30
2023-02-16T01:19:05.684Z,13.82
2023-02-16T01:21:33.094Z,14.93
2023-02-16T01:24:00.785Z,14.38
2023-02-16T01:26:27.919Z,14.75
2023-02-16T01:28:54.735Z,14.25
2023-02-16T01:31:21.831Z,15.13
2023-02-16T01:33:48.981Z,14.02
2023-02-16T01:36:22.132Z,14.95
2023-02-16T01:38:49.021Z,14.45
2023-02-16T01:41:31.626Z,15.45
2023-02-16T01:44:23.863Z,14.15
2023-02-16T01:46:59.868Z,15.60
2023-02-16T01:49:28.020Z,15.50
2023-02-16T01:52:27.309Z,14.88
2023-02-16T01:55:00.749Z,15.50
2023-02-16T01:57:38.208Z,15.13
2023-02-16T02:00:13.012Z,14.90
2023-02-16T02:02:44.256Z,15.00
2023-02-16T02:05:53.571Z,14.90
2023-02-16T02:08:51.466Z,14.32
2023-02-16T02:11:52.383Z,13.80
2023-02-16T02:14:33.132Z,14.02
2023-02-16T02:17:05.610Z,14.50
2023-02-16T02:19:46.042Z,15.10
2023-02-16T02:22:31.770Z,15.00
2023-02-16T02:25:11.022Z,14.93
2023-02-16T02:28:15.195Z,14.93
2023-02-16T02:30:53.865Z,16.20
2023-02-16T02:33:26.646Z,15.10
2023-02-16T02:36:07.014Z,15.38
2023-02-16T02:39:00.310Z,15.73
2023-02-16T02:41:49.893Z,16.35
2023-02-16T02:44:21.558Z,15.30
2023-02-16T02:46:49.168Z,15.30
2023-02-16T02:49:16.345Z,14.75
2023-02-16T02:51:43.257Z,15.18
2023-02-16T02:54:39.094Z,14.43
2023-02-16T02:57:34.684Z,16.05
2023-02-16T03:00:40.163Z,16.27
2023-02-16T03:03:14.001Z,15.52
2023-02-16T03:05:46.414Z,15.88
2023-02-16T03:08:17.651Z,17.33
2023-02-16T03:11:22.526Z,17.88
2023-02-16T03:13:55.675Z,16.80
2023-02-16T03:16:43.465Z,16.67
2023-02-16T03:19:32.524Z,16.40
2023-02-16T03:22:18.700Z,18.45
2023-02-16T03:25:04.870Z,15.35
2023-02-16T03:27:55.520Z,15.32
2023-02-16T03:30:24.430Z,15.98
2023-02-16T03:32:52.449Z,16.42
2023-02-16T03:35:19.698Z,16.02
2023-02-16T03:37:48.221Z,15.95
2023-02-16T03:40:30.272Z,16.00
2023-02-16T03:43:01.229Z,16.90
2023-02-16T03:45:29.154Z,16.98
2023-02-16T03:47:59.144Z,16.15
2023-02-16T03:50:27.191Z,15.68
2023-02-16T03:53:18.250Z,15.70
2023-02-16T03:55:47.414Z,16.77
2023-02-16T03:58:17.720Z,15.52
2023-02-16T04:00:44.874Z,16.33
2023-02-16T04:03:12.324Z,15.65
2023-02-16T04:05:39.969Z,15.27
2023-02-16T04:08:08.142Z,23.73
2023-02-16T04:10:35.422Z,19.42
2023-02-16T04:13:02.307Z,15.90
2023-02-16T04:15:30.606Z,18.35
2023-02-16T04:17:57.788Z,14.77
2023-02-16T04:20:27.983Z,15.43
2023-02-16T04:22:55.210Z,13.55
2023-02-16T04:25:22.338Z,14.15
2023-02-16T04:27:50.637Z,15.27
2023-02-16T04:30:20.258Z,15.40
2023-02-16T04:32:47.301Z,14.00
2023-02-16T04:35:14.662Z,16.80
2023-02-16T04:37:41.861Z,15.75
2023-02-16T04:40:11.092Z,14.90
2023-02-16T04:42:38.077Z,15.18
2023-02-16T04:45:05.118Z,14.90
2023-02-16T04:47:32.025Z,16.13
2023-02-16T04:49:59.316Z,14.25
2023-02-16T04:52:26.076Z,15.52
2023-02-16T04:54:52.968Z,14.32
2023-02-16T04:57:21.430Z,15.57
2023-02-16T04:59:48.229Z,14.40
2023-02-16T05:02:15.165Z,15.50
2023-02-16T05:04:42.407Z,14.60
2023-02-16T05:07:10.302Z,14.93
2023-02-16T05:09:37.122Z,14.82
2023-02-16T05:12:22.758Z,15.52
2023-02-16T05:14:50.016Z,16.13
2023-02-16T05:17:18.347Z,14.88
2023-02-16T05:19:51.022Z,15.32
2023-02-16T05:22:19.441Z,14.80
2023-02-16T05:24:46.612Z,16.02
2023-02-16T05:27:22.328Z,16.27
2023-02-16T05:29:49.675Z,14.30
2023-02-16T05:32:17.198Z,14.10
2023-02-16T05:34:45.621Z,14.55
2023-02-16T05:37:14.512Z,14.95
2023-02-16T05:39:41.588Z,17.27
2023-02-16T05:42:08.953Z,14.32
2023-02-16T05:44:36.750Z,16.80
2023-02-16T05:47:04.152Z,14.25
2023-02-16T05:49:31.200Z,15.13
2023-02-16T05:51:58.234Z,14.20
2023-02-16T05:54:25.207Z,13.10
2023-02-16T05:56:52.675Z,13.45
2023-02-16T05:59:19.959Z,15.07
2023-02-16T06:01:51.253Z,13.95
2023-02-16T06:04:20.585Z,13.27
2023-02-16T06:06:47.889Z,14.70
2023-02-16T06:09:15.084Z,12.50
2023-02-16T06:11:42.667Z,14.05
2023-02-16T06:14:13.215Z,13.85
2023-02-16T06:16:42.224Z,15.27
2023-02-16T06:19:09.974Z,13.35
2023-02-16T06:21:37.832Z,13.43
2023-02-16T06:24:05.863Z,16.40
2023-02-16T06:26:32.841Z,13.70
2023-02-16T06:28:59.843Z,14.20
2023-02-16T06:31:27.453Z,15.25
2023-02-16T06:33:56.951Z,13.82
2023-02-16T06:36:24.716Z,13.10
2023-02-16T06:38:51.826Z,12.88
2023-02-16T06:41:31.519Z,12.77
2023-02-16T06:44:00.650Z,13.27
2023-02-16T06:46:28.362Z,11.88
2023-02-16T06:48:55.429Z,12.85
2023-02-16T06:51:22.278Z,11.98
2023-02-16T06:53:49.469Z,12.82
2023-02-16T06:56:16.433Z,12.57
2023-02-16T06:58:43.597Z,12.32
2023-02-16T07:01:10.488Z,15.57
2023-02-16T07:03:37.446Z,14.88
2023-02-16T07:06:04.638Z,14.13
2023-02-16T07:08:31.853Z,12.95
2023-02-16T07:10:58.685Z,12.77
2023-02-16T07:13:25.552Z,13.55
2023-02-16T07:15:52.479Z,12.55
2023-02-16T07:18:19.759Z,13.07
2023-02-16T07:20:47.709Z,11.68
2023-02-16T07:23:14.502Z,12.00
2023-02-16T07:25:41.288Z,12.80
2023-02-16T07:28:08.121Z,12.70
2023-02-16T07:30:36.384Z,11.50
2023-02-16T07:33:04.253Z,11.65
2023-02-16T07:35:31.115Z,12.00
2023-02-16T07:37:58.075Z,12.18
2023-02-16T07:40:25.198Z,12.10
2023-02-16T07:42:51.984Z,11.55
2023-02-16T07:45:18.983Z,10.80
2023-02-16T07:47:45.871Z,11.23
2023-02-16T07:50:12.941Z,11.50
2023-02-16T07:52:39.882Z,11.48
2023-02-16T07:55:06.923Z,11.63
2023-02-16T07:57:33.736Z,14.00
2023-02-16T08:00:00.616Z,11.75
2023-02-16T08:02:27.706Z,12.30
2023-02-16T08:04:54.689Z,11.88
2023-02-16T08:07:21.799Z,12.02
2023-02-16T08:09:49.811Z,12.07
2023-02-16T08:12:17.063Z,13.00
2023-02-16T08:14:44.765Z,11.45
2023-02-16T08:17:11.660Z,11.00
2023-02-16T08:19:38.620Z,11.40
2023-02-16T08:22:06.608Z,11.20
2023-02-16T08:24:34.280Z,12.25
2023-02-16T08:27:03.942Z,11.65
2023-02-16T08:29:31.929Z,11.75
2023-02-16T08:31:59.513Z,11.25
2023-02-16T08:34:26.704Z,10.70
2023-02-16T08:36:56.810Z,11.27
2023-02-16T08:39:26.435Z,10.82
2023-02-16T08:41:54.163Z,11.80
2023-02-16T08:44:23.871Z,12.13
2023-02-16T08:46:55.522Z,11.75
2023-02-16T08:49:24.111Z,11.60
2023-02-16T08:51:54.606Z,11.88
2023-02-16T08:54:30.580Z,11.40
2023-02-16T08:56:59.724Z,12.10
2023-02-16T08:59:28.799Z,11.02
2023-02-16T09:01:58.220Z,11.65
2023-02-16T09:04:25.702Z,12.35
2023-02-16T09:06:53.512Z,12.35
2023-02-16T09:09:20.780Z,11.48
2023-02-16T09:11:48.757Z,11.98
2023-02-16T09:14:18.569Z,12.27
2023-02-16T09:16:46.052Z,10.98
2023-02-16T09:19:15.404Z,12.27
2023-02-16T09:21:42.861Z,12.50
2023-02-16T09:24:11.617Z,11.93
2023-02-16T09:26:42.474Z,11.90
2023-02-16T09:29:10.971Z,11.77
2023-02-16T09:31:39.695Z,10.90
2023-02-16T09:34:17.893Z,11.00
2023-02-16T09:36:45.798Z,11.63
2023-02-16T09:39:13.045Z,10.90
2023-02-16T09:42:29.736Z,11.23
2023-02-16T09:45:11.942Z,11.07
2023-02-16T09:47:43.158Z,11.65
2023-02-16T09:50:16.261Z,11.32
2023-02-16T09:52:53.416Z,11.63
2023-02-16T09:55:22.517Z,11.75
2023-02-16T09:58:01.452Z,11.98
2023-02-16T10:00:43.308Z,12.70
2023-02-16T10:03:47.481Z,12.35
2023-02-16T10:06:14.314Z,12.38
2023-02-16T10:08:51.489Z,12.25
2023-02-16T10:11:38.418Z,12.40
2023-02-16T10:14:31.025Z,12.05
2023-02-16T10:17:11.289Z,11.18
2023-02-16T10:19:54.663Z,12.20
2023-02-16T10:22:38.980Z,11.80
2023-02-16T10:25:10.229Z,11.88
2023-02-16T10:27:47.707Z,11.88
2023-02-16T10:30:18.477Z,12.27
2023-02-16T10:32:59.639Z,11.98
2023-02-16T10:35:48.272Z,11.85
2023-02-16T10:38:27.450Z,11.70
2023-02-16T10:41:34.841Z,12.70
2023-02-16T10:44:11.215Z,12.60
2023-02-16T10:46:45.444Z,12.65
2023-02-16T10:49:14.635Z,12.70
2023-02-16T10:51:50.245Z,12.93
2023-02-16T10:54:22.490Z,12.77
2023-02-16T10:56:54.346Z,11.57
2023-02-16T10:59:22.893Z,12.85
2023-02-16T11:01:57.634Z,12.20
2023-02-16T11:04:33.659Z,12.65
2023-02-16T11:07:14.326Z,12.57
2023-02-16T11:09:43.054Z,11.52
2023-02-16T11:12:35.374Z,12.15
2023-02-16T11:15:06.241Z,12.25
2023-02-16T11:17:49.101Z,13.40
2023-02-16T11:20:29.719Z,12.23
2023-02-16T11:23:22.973Z,12.68
2023-02-16T11:25:58.500Z,13.63
2023-02-16T11:28:34.886Z,12.68
2023-02-16T11:31:40.317Z,13.15
2023-02-16T11:34:35.870Z,13.93
2023-02-16T11:37:05.713Z,13.55
2023-02-16T11:39:37.848Z,13.13
2023-02-16T11:42:23.283Z,13.13
2023-02-16T11:44:56.346Z,13.52
2023-02-16T11:47:29.805Z,13.48
2023-02-16T11:50:28.631Z,13.27
2023-02-16T11:53:22.870Z,13.40
2023-02-16T11:55:51.261Z,13.38
2023-02-16T11:58:18.088Z,13.57
2023-02-16T12:01:16.701Z,13.32
2023-02-16T12:04:22.277Z,12.90
2023-02-16T12:07:20.263Z,12.98
2023-02-16T12:10:13.142Z,12.82
2023-02-16T12:13:08.778Z,12.88
2023-02-16T12:16:02.157Z,13.32
2023-02-16T12:18:48.110Z,12.80
2023-02-16T12:21:33.005Z,13.73
2023-02-16T12:24:47.970Z,13.30
2023-02-16T12:27:37.577Z,12.75
2023-02-16T12:30:29.338Z,12.27
2023-02-16T12:33:13.860Z,12.95
2023-02-16T12:36:06.674Z,12.60
2023-02-16T12:39:02.221Z,13.73
2023-02-16T12:42:01.090Z,13.18
2023-02-16T12:44:37.463Z,12.95
2023-02-16T12:47:16.265Z,12.95
2023-02-16T12:50:03.799Z,13.00
2023-02-16T12:52:49.753Z,13.75
2023-02-16T12:55:26.529Z,12.93
2023-02-16T12:58:10.007Z,13.68
2023-02-16T13:00:52.967Z,13.85
2023-02-16T13:04:10.992Z,13.40
2023-02-16T13:06:57.919Z,13.27
2023-02-16T13:09:36.510Z,13.52
2023-02-16T13:12:26.026Z,13.32
2023-02-16T13:51:44.758Z,17.17
2023-02-16T13:54:30.615Z,14.95
2023-02-16T13:56:57.737Z,13.48
2023-02-16T13:59:24.560Z,13.93
2023-02-16T14:01:54.457Z,13.85
2023-02-16T14:04:24.721Z,13.48
2023-02-16T14:07:03.850Z,13.80
2023-02-16T14:09:45.831Z,14.32
2023-02-16T14:12:20.106Z,14.48
2023-02-16T14:14:57.835Z,15.07
2023-02-16T14:17:28.077Z,13.65
2023-02-16T14:20:09.337Z,15.30
2023-02-16T14:22:54.183Z,15.10
2023-02-16T14:25:23.833Z,14.60
2023-02-16T14:28:02.904Z,15.13
2023-02-16T14:30:38.835Z,15.48
2023-02-16T14:33:17.654Z,15.07
2023-02-16T14:36:00.152Z,16.58
2023-02-16T14:38:47.676Z,14.27
2023-02-16T14:41:24.915Z,15.07
2023-02-16T14:43:56.646Z,15.93
2023-02-16T14:46:38.464Z,15.75
2023-02-16T14:49:14.947Z,15.98
2023-02-16T14:52:09.423Z,15.90
2023-02-16T14:55:01.836Z,15.23
2023-02-16T14:57:34.963Z,15.40
2023-02-16T15:00:19.834Z,16.02
2023-02-16T15:03:21.103Z,16.58
2023-02-16T15:06:02.566Z,17.00
2023-02-16T15:08:35.796Z,16.40
2023-02-16T15:11:34.075Z,16.85
2023-02-16T15:14:08.943Z,16.58
2023-02-16T15:16:40.520Z,16.95
2023-02-16T15:19:22.877Z,16.98
2023-02-16T15:22:27.629Z,18.10
2023-02-16T15:24:58.615Z,18.02
2023-02-16T15:27:26.305Z,17.63
2023-02-16T15:30:06.143Z,17.65
2023-02-16T15:32:33.430Z,16.88
2023-02-16T15:35:13.561Z,17.33
2023-02-16T15:37:41.701Z,16.83
2023-02-16T15:40:26.139Z,16.88
2023-02-16T15:42:54.945Z,17.35
2023-02-16T15:45:37.742Z,18.23
2023-02-16T15:48:36.766Z,17.88
2023-02-16T15:51:09.006Z,18.00
2023-02-16T15:53:57.530Z,17.75
2023-02-16T15:56:38.869Z,18.27
2023-02-16T15:59:36.922Z,18.00
2023-02-16T16:02:07.182Z,18.80
2023-02-16T16:04:38.826Z,19.13
2023-02-16T16:07:08.447Z,18.77
2023-02-16T16:09:36.673Z,19.98
2023-02-16T16:12:06.942Z,18.65
2023-02-16T16:14:38.951Z,18.08
2023-02-16T16:17:09.017Z,18.30
2023-02-16T16:19:38.228Z,18.45
2023-02-16T16:22:29.358Z,18.25
2023-02-16T16:24:56.637Z,18.65
2023-02-16T16:27:36.718Z,18.90
2023-02-16T16:30:20.625Z,18.45
2023-02-16T16:32:47.722Z,18.27
2023-02-16T16:35:44.082Z,18.40
2023-02-16T16:38:28.639Z,19.00
2023-02-16T16:40:58.973Z,18.60
2023-02-16T16:43:30.393Z,19.90
2023-02-16T16:46:23.507Z,19.48
2023-02-16T16:48:55.037Z,18.77
2023-02-16T16:51:40.165Z,20.42
2023-02-16T16:54:31.522Z,19.70
2023-02-16T16:56:58.394Z,19.33
2023-02-16T16:59:25.283Z,18.73
2023-02-16T17:01:52.974Z,18.45
2023-02-16T17:04:22.116Z,18.30
2023-02-16T17:06:49.198Z,18.40
2023-02-16T17:09:16.954Z,18.45
2023-02-16T17:11:43.896Z,18.48
2023-02-16T17:14:14.770Z,18.10
2023-02-16T17:16:45.134Z,19.45
2023-02-16T17:19:16.804Z,18.48
2023-02-16T17:21:44.924Z,19.23
2023-02-16T17:24:11.753Z,20.35
2023-02-16T17:26:38.768Z,19.63
2023-02-16T17:29:06.894Z,18.80
2023-02-16T17:31:34.672Z,18.77
2023-02-16T17:34:02.685Z,19.10
2023-02-16T17:36:29.688Z,18.88
2023-02-16T17:38:56.587Z,19.75
2023-02-16T17:41:28.964Z,19.98
2023-02-16T17:43:56.128Z,19.70
2023-02-16T17:46:23.484Z,21.05
2023-02-16T17:48:53.930Z,20.10
2023-02-16T17:51:24.687Z,20.60
2023-02-16T17:53:51.953Z,21.40
2023-02-16T17:56:21.847Z,21.65
2023-02-16T17:58:51.297Z,21.38
2023-02-16T18:01:19.130Z,21.35
2023-02-16T18:03:46.422Z,19.63
2023-02-16T18:06:15.785Z,22.35
2023-02-16T18:08:43.030Z,26.63
2023-02-16T18:11:10.240Z,20.67
2023-02-16T18:13:37.980Z,20.77
2023-02-16T18:16:07.153Z,20.88
2023-02-16T18:18:36.910Z,22.83
2023-02-16T18:21:04.024Z,20.83
2023-02-16T18:23:31.312Z,21.38
2023-02-16T18:25:58.285Z,21.33
2023-02-16T18:28:31.376Z,21.30
2023-02-16T18:30:58.923Z,20.95
2023-02-16T18:33:26.382Z,19.63
2023-02-16T18:35:55.483Z,19.77
2023-02-16T18:38:23.311Z,20.05
2023-02-16T18:40:51.836Z,19.60
2023-02-16T18:43:18.949Z,20.67
2023-02-16T18:45:45.811Z,21.45
2023-02-16T18:48:13.394Z,20.70
2023-02-16T18:50:40.564Z,20.65
2023-02-16T18:53:07.845Z,20.70
2023-02-16T18:55:35.236Z,21.20
2023-02-16T18:58:08.268Z,21.98
2023-02-16T19:00:36.968Z,20.60
2023-02-16T19:03:04.850Z,20.77
2023-02-16T19:05:32.444Z,21.45
2023-02-16T19:07:59.624Z,21.15
2023-02-16T19:10:26.718Z,21.65
2023-02-16T19:12:53.901Z,22.08
2023-02-16T19:15:20.960Z,21.08
2023-02-16T19:17:48.152Z,21.80
2023-02-16T19:20:18.242Z,21.52
2023-02-16T19:22:48.867Z,20.60
2023-02-16T19:25:16.304Z,22.73
2023-02-16T19:27:43.998Z,22.35
2023-02-16T19:30:12.508Z,21.52
2023-02-16T19:32:41.293Z,22.15
2023-02-16T19:35:12.016Z,22.27
2023-02-16T19:37:39.078Z,22.63
2023-02-16T19:40:08.518Z,22.13
2023-02-16T19:42:35.647Z,22.52
2023-02-16T19:45:02.889Z,22.10
2023-02-16T19:47:31.009Z,21.40
2023-02-16T19:49:58.778Z,21.42
2023-02-16T19:52:25.614Z,20.67
2023-02-16T19:54:52.749Z,20.50
2023-02-16T19:57:20.578Z,21.25
2023-02-16T19:59:47.541Z,22.15
2023-02-16T20:02:15.619Z,23.00
2023-02-16T20:04:44.047Z,22.90
2023-02-16T20:07:11.399Z,22.42
2023-02-16T20:09:38.550Z,22.50
2023-02-16T20:12:06.245Z,21.63
2023-02-16T20:14:33.362Z,21.00
2023-02-16T20:17:00.293Z,21.83
2023-02-16T20:19:27.550Z,22.38
2023-02-16T20:21:54.467Z,21.15
2023-02-16T20:24:21.592Z,21.63
2023-02-16T20:26:50.432Z,20.88
2023-02-16T20:29:17.568Z,21.20
2023-02-16T20:31:48.716Z,22.67
2023-02-16T20:34:16.078Z,23.33
2023-02-16T20:36:43.360Z,22.48
2023-02-16T20:39:10.365Z,22.50
2023-02-16T20:41:37.552Z,22.65
2023-02-16T20:44:05.050Z,23.15
2023-02-16T20:46:32.667Z,22.52
2023-02-16T20:48:59.750Z,22.95
2023-02-16T20:51:26.692Z,23.92
2023-02-16T20:53:53.621Z,24.60
2023-02-16T20:56:25.261Z,24.38
2023-02-16T20:58:55.649Z,23.63
2023-02-16T21:01:43.552Z,23.05
2023-02-16T21:04:11.000Z,22.48
2023-02-16T21:06:38.384Z,21.58
2023-02-16T21:09:08.712Z,22.65
2023-02-16T21:11:37.153Z,23.25
2023-02-16T21:14:05.293Z,22.52
2023-02-16T21:16:32.439Z,23.48
2023-02-16T21:18:59.624Z,25.10
2023-02-16T21:21:26.905Z,25.02
2023-02-16T21:23:55.088Z,23.38
2023-02-16T21:26:24.648Z,28.55
2023-02-16T21:28:51.859Z,26.38
2023-02-16T21:31:24.527Z,25.58
2023-02-16T21:33:51.986Z,23.95
2023-02-16T21:36:24.733Z,23.00
2023-02-16T21:38:51.844Z,22.73
2023-02-16T21:41:25.717Z,23.13
2023-02-16T21:44:07.655Z,21.45
2023-02-16T21:46:37.489Z,21.02
2023-02-16T21:49:05.896Z,21.40
2023-02-16T21:51:38.056Z,21.10
2023-02-16T21:54:07.114Z,21.63
2023-02-16T21:56:52.857Z,21.35
2023-02-16T21:59:21.866Z,20.38
2023-02-16T22:01:51.245Z,20.90
2023-02-16T22:04:21.151Z,20.80
2023-02-16T22:06:50.003Z,19.98
2023-02-16T22:09:20.113Z,19.95
2023-02-16T22:11:47.674Z,20.00
2023-02-16T22:14:15.038Z,20.10
2023-02-16T22:16:44.523Z,20.45
2023-02-16T22:19:14.130Z,19.73
2023-02-16T22:21:42.999Z,20.40
2023-02-16T22:24:13.518Z,20.50
2023-02-16T22:26:40.955Z,20.42
2023-02-16T22:29:08.903Z,20.08
2023-02-16T22:31:36.153Z,20.73
2023-02-16T22:34:05.665Z,21.42
2023-02-16T22:36:33.665Z,21.25
2023-02-16T22:39:00.637Z,20.27
2023-02-16T22:41:27.652Z,20.75
2023-02-16T22:43:55.572Z,20.67
2023-02-16T22:46:23.972Z,21.90
2023-02-16T22:48:51.256Z,20.70
2023-02-16T22:51:19.264Z,21.05
2023-02-16T22:53:47.010Z,21.02
2023-02-16T22:56:16.191Z,20.67
2023-02-16T22:58:43.164Z,20.75
2023-02-16T23:01:18.981Z,20.60
2023-02-16T23:03:48.297Z,21.55
2023-02-16T23:06:21.279Z,20.67
2023-02-16T23:08:57.452Z,21.40
2023-02-16T23:11:25.510Z,21.67
2023-02-16T23:13:52.644Z,20.25
2023-02-16T23:16:22.611Z,19.42
2023-02-16T23:18:50.453Z,20.95
2023-02-16T23:21:21.685Z,20.08
2023-02-16T23:23:51.630Z,20.23
2023-02-16T23:26:20.281Z,20.00
2023-02-16T23:28:51.579Z,19.90
2023-02-16T23:31:19.196Z,20.10
2023-02-16T23:33:46.228Z,19.80
2023-02-16T23:36:13.117Z,20.02
2023-02-16T23:38:40.213Z,20.05
2023-02-16T23:41:11.785Z,19.80
2023-02-16T23:43:39.286Z,18.58
2023-02-16T23:46:07.508Z,20.45
2023-02-16T23:48:35.278Z,20.45
2023-02-16T23:51:02.496Z,19.85
2023-02-16T23:53:29.416Z,19.95
2023-02-16T23:56:05.286Z,19.23
2023-02-16T23:58:41.236Z,19.60
